Time;durP1;ratioP1;P1;durP2;ratioP2;P2;SDS_P1;SDS_P2;PMS_P1;PMS_P2;Temp;Humidity;BMP_temperature;BMP_pressure;BME280_temperature;BME280_humidity;BME280_pressure;Samples;Min_cycle;Max_cycle;Signal;HPM_P1;HPM_P2
2023/12/22 00:00:11;;;;;;;2.77;0.90;;;7.30;99.90;;;;;;5070809;28;20184;-72
2023/12/22 00:02:36;;;;;;;7.00;1.50;;;7.30;99.90;;;;;;5069659;28;20190;-71
2023/12/22 00:05:02;;;;;;;3.43;1.30;;;7.30;99.90;;;;;;5069494;28;20670;-71
2023/12/22 00:07:28;;;;;;;2.60;0.93;;;7.30;99.90;;;;;;5070707;28;20226;-72
2023/12/22 00:09:54;;;;;;;5.57;1.03;;;7.30;99.90;;;;;;5068807;28;20193;-73
2023/12/22 00:12:19;;;;;;;2.37;0.80;;;7.30;99.90;;;;;;5068637;28;20422;-72
2023/12/22 00:14:45;;;;;;;1.73;0.60;;;7.20;99.90;;;;;;5068545;28;20179;-74
2023/12/22 00:17:10;;;;;;;1.10;0.60;;;7.20;99.90;;;;;;5070028;28;20201;-73
2023/12/22 00:19:36;;;;;;;0.90;0.67;;;7.10;99.90;;;;;;5068663;28;20179;-72
2023/12/22 00:22:03;;;;;;;2.77;0.70;;;7.00;99.90;;;;;;5070321;28;20186;-72
2023/12/22 00:24:29;;;;;;;2.57;0.63;;;7.00;99.90;;;;;;5070305;28;20175;-73
2023/12/22 00:26:54;;;;;;;2.33;0.90;;;6.90;99.90;;;;;;5069665;28;20510;-72
2023/12/22 00:29:20;;;;;;;2.10;0.67;;;6.90;99.90;;;;;;5069751;28;20432;-73
2023/12/22 00:31:46;;;;;;;1.63;0.80;;;6.90;99.90;;;;;;5069839;28;20211;-74
2023/12/22 00:34:11;;;;;;;2.00;1.00;;;6.90;99.90;;;;;;5068290;28;20225;-72
2023/12/22 00:36:37;;;;;;;1.73;0.93;;;6.90;99.90;;;;;;5069589;28;20199;-71
2023/12/22 00:39:03;;;;;;;2.10;0.90;;;6.90;99.90;;;;;;5069733;28;20588;-72
2023/12/22 00:41:28;;;;;;;4.13;1.03;;;6.90;99.90;;;;;;5068215;28;20175;-72
2023/12/22 00:43:54;;;;;;;4.07;1.10;;;6.90;99.90;;;;;;5069572;28;20417;-74
2023/12/22 00:46:20;;;;;;;3.63;1.10;;;6.90;99.90;;;;;;5068031;28;20207;-73
2023/12/22 00:48:45;;;;;;;3.17;0.80;;;6.90;99.90;;;;;;5069519;28;20610;-74
2023/12/22 00:51:11;;;;;;;4.57;1.00;;;6.90;99.90;;;;;;5068034;28;20421;-73
2023/12/22 00:53:37;;;;;;;2.50;0.80;;;6.90;99.90;;;;;;5067690;28;20222;-71
2023/12/22 00:56:03;;;;;;;4.07;1.10;;;6.90;99.90;;;;;;5067783;28;20592;-72
2023/12/22 00:58:30;;;;;;;1.90;0.80;;;7.00;99.90;;;;;;5069268;28;20178;-72
2023/12/22 01:00:55;;;;;;;7.60;0.93;;;7.00;99.90;;;;;;5051163;28;20194;-72
2023/12/22 01:03:21;;;;;;;3.90;0.97;;;7.00;99.90;;;;;;5067517;28;20421;-73
2023/12/22 01:05:46;;;;;;;16.10;1.57;;;7.00;99.90;;;;;;5069103;28;20268;-72
2023/12/22 01:08:12;;;;;;;6.90;1.60;;;7.00;99.90;;;;;;5069158;28;20267;-71
2023/12/22 01:10:37;;;;;;;3.60;0.93;;;7.00;99.90;;;;;;5069132;28;20192;-71
2023/12/22 01:13:03;;;;;;;3.57;0.70;;;7.00;99.90;;;;;;5067331;28;20804;-73
2023/12/22 01:15:29;;;;;;;2.87;0.90;;;7.00;99.90;;;;;;5069099;28;20184;-72
2023/12/22 01:17:54;;;;;;;2.20;0.90;;;7.00;99.90;;;;;;5067138;28;20273;-73
2023/12/22 01:20:20;;;;;;;2.90;0.70;;;7.00;99.90;;;;;;5067533;28;20687;-73
2023/12/22 01:22:46;;;;;;;3.50;1.43;;;7.00;99.90;;;;;;5068877;28;20187;-74
2023/12/22 01:25:11;;;;;;;4.60;1.30;;;7.10;99.90;;;;;;5067380;28;20276;-72
2023/12/22 01:27:37;;;;;;;1.77;0.77;;;7.10;99.90;;;;;;5068807;28;20349;-71
2023/12/22 01:30:03;;;;;;;2.50;0.90;;;7.10;99.90;;;;;;5068794;28;20191;-73
2023/12/22 01:32:34;;;;;;;7.37;1.40;;;7.10;99.90;;;;;;5067794;28;20179;-72
2023/12/22 01:35:03;;;;;;;5.53;1.10;;;7.10;99.90;;;;;;5068995;28;20429;-72
2023/12/22 01:37:29;;;;;;;5.73;1.10;;;7.10;99.90;;;;;;5069161;28;20465;-72
2023/12/22 01:39:55;;;;;;;5.17;1.17;;;7.10;99.90;;;;;;5068852;28;20425;-72
2023/12/22 01:42:21;;;;;;;6.73;0.97;;;7.10;99.90;;;;;;5068632;28;20418;-73
2023/12/22 01:44:46;;;;;;;8.00;1.27;;;7.10;99.90;;;;;;5068904;28;20192;-73
2023/12/22 01:47:12;;;;;;;2.53;0.63;;;7.10;99.90;;;;;;5067136;28;20207;-72
2023/12/22 01:49:38;;;;;;;3.27;0.80;;;7.10;99.90;;;;;;5068825;28;20195;-72
2023/12/22 01:52:04;;;;;;;2.43;0.80;;;7.10;99.90;;;;;;5068802;28;20433;-72
2023/12/22 01:54:31;;;;;;;3.00;0.60;;;7.00;99.90;;;;;;5066878;28;20468;-74
2023/12/22 01:56:57;;;;;;;1.30;0.60;;;7.00;99.90;;;;;;5068383;28;20429;-73
2023/12/22 01:59:23;;;;;;;0.83;0.40;;;6.90;99.90;;;;;;5067154;28;21053;-74
2023/12/22 02:01:49;;;;;;;1.33;0.50;;;6.90;99.90;;;;;;5050267;28;20418;-74
2023/12/22 02:04:15;;;;;;;1.13;0.40;;;6.90;99.90;;;;;;5068534;28;20526;-72
2023/12/22 02:06:42;;;;;;;1.90;0.40;;;6.80;99.90;;;;;;5068552;28;20290;-74
2023/12/22 02:09:08;;;;;;;0.83;0.40;;;6.80;99.90;;;;;;5050425;28;20420;-72
2023/12/22 02:11:34;;;;;;;1.87;0.40;;;6.80;99.90;;;;;;5068375;28;20410;-73
2023/12/22 02:13:59;;;;;;;1.00;0.60;;;6.80;99.90;;;;;;5068336;28;20548;-73
2023/12/22 02:16:39;;;;;;;3.53;0.53;;;6.80;99.90;;;;;;5068291;28;20217;-73
2023/12/22 02:19:28;;;;;;;0.80;0.50;;;6.70;99.90;;;;;;5068614;28;20559;-73
2023/12/22 02:22:04;;;;;;;0.60;0.40;;;6.70;99.90;;;;;;5068846;28;20440;-73
2023/12/22 02:24:30;;;;;;;1.53;0.40;;;6.70;99.90;;;;;;5069189;28;20864;-73
2023/12/22 02:27:14;;;;;;;1.53;0.60;;;6.70;99.90;;;;;;5068715;28;20543;-73
2023/12/22 02:29:47;;;;;;;0.80;0.40;;;6.60;99.90;;;;;;5069237;28;20421;-72
2023/12/22 02:32:22;;;;;;;0.90;0.50;;;6.60;99.90;;;;;;5068854;28;20398;-72
2023/12/22 02:34:52;;;;;;;0.70;0.40;;;6.60;99.90;;;;;;5069024;28;20467;-72
2023/12/22 02:37:18;;;;;;;1.73;0.47;;;6.60;99.90;;;;;;5068789;28;20814;-73
2023/12/22 02:39:44;;;;;;;3.43;0.53;;;6.60;99.90;;;;;;5069219;28;20424;-73
2023/12/22 02:42:11;;;;;;;1.23;0.60;;;6.60;99.90;;;;;;5067513;28;20421;-73
2023/12/22 02:44:38;;;;;;;2.40;0.87;;;6.70;99.90;;;;;;5071620;28;20896;-72
2023/12/22 02:47:03;;;;;;;2.33;0.60;;;6.70;99.90;;;;;;5054729;28;20445;-73
2023/12/22 02:49:29;;;;;;;2.20;0.73;;;6.70;99.90;;;;;;5072340;28;20424;-72
2023/12/22 02:51:55;;;;;;;3.13;0.60;;;6.70;99.90;;;;;;5072101;28;20183;-72
2023/12/22 02:54:20;;;;;;;2.50;0.60;;;6.70;99.90;;;;;;5071971;28;20352;-73
2023/12/22 02:56:47;;;;;;;1.63;0.70;;;6.70;99.90;;;;;;5071996;28;20206;-74
2023/12/22 02:59:12;;;;;;;2.83;0.80;;;6.70;99.90;;;;;;5072112;28;20232;-72
2023/12/22 03:01:38;;;;;;;8.00;1.10;;;6.70;99.90;;;;;;5070545;28;20786;-73
2023/12/22 03:04:03;;;;;;;6.03;0.70;;;6.80;99.90;;;;;;5070608;28;20179;-73
2023/12/22 03:06:29;;;;;;;8.97;1.00;;;6.70;99.90;;;;;;5070335;28;20621;-73
2023/12/22 03:08:55;;;;;;;5.63;1.30;;;6.80;99.90;;;;;;5070190;28;20249;-72
2023/12/22 03:11:20;;;;;;;2.50;0.90;;;6.80;99.90;;;;;;5070170;28;20180;-73
2023/12/22 03:13:46;;;;;;;2.10;0.90;;;6.80;99.90;;;;;;5071479;28;20238;-72
2023/12/22 03:16:11;;;;;;;5.47;1.00;;;6.80;99.90;;;;;;5071421;28;20590;-72
2023/12/22 03:18:40;;;;;;;3.13;0.83;;;6.70;99.90;;;;;;5071524;28;20178;-72
2023/12/22 03:21:06;;;;;;;2.30;0.70;;;6.80;99.90;;;;;;5071306;28;20187;-72
2023/12/22 03:23:31;;;;;;;0.90;0.60;;;6.90;99.90;;;;;;5071408;28;20490;-73
2023/12/22 03:25:57;;;;;;;2.17;0.63;;;6.90;99.90;;;;;;5070002;28;20218;-71
2023/12/22 03:28:22;;;;;;;3.23;0.70;;;6.90;99.90;;;;;;5069945;28;20241;-74
2023/12/22 03:30:48;;;;;;;3.40;0.90;;;6.90;99.90;;;;;;5071491;28;20190;-74
2023/12/22 03:33:13;;;;;;;2.70;0.70;;;6.80;99.90;;;;;;5071526;28;20206;-73
2023/12/22 03:35:39;;;;;;;3.07;0.67;;;6.80;99.90;;;;;;5069866;28;20647;-72
2023/12/22 03:38:05;;;;;;;4.00;1.00;;;6.80;99.90;;;;;;5071590;28;20183;-74
2023/12/22 03:40:30;;;;;;;3.77;1.00;;;6.80;99.90;;;;;;5071644;28;20179;-73
2023/12/22 03:42:56;;;;;;;6.20;0.80;;;6.70;99.90;;;;;;5070453;28;20213;-72
2023/12/22 03:45:21;;;;;;;2.30;0.77;;;6.70;99.90;;;;;;5070590;28;20657;-73
2023/12/22 03:47:47;;;;;;;1.93;0.70;;;6.70;99.90;;;;;;5072039;28;20209;-72
2023/12/22 03:50:12;;;;;;;2.20;0.90;;;6.70;99.90;;;;;;5071651;28;20551;-72
2023/12/22 03:52:38;;;;;;;3.03;0.50;;;6.70;99.90;;;;;;5071573;28;20237;-72
2023/12/22 03:55:04;;;;;;;0.90;0.50;;;6.70;99.90;;;;;;5070859;28;20179;-71
2023/12/22 03:57:30;;;;;;;2.93;0.70;;;6.70;99.90;;;;;;5069736;28;20576;-71
2023/12/22 03:59:55;;;;;;;2.20;0.50;;;6.80;99.90;;;;;;5071210;28;20912;-71
2023/12/22 04:02:21;;;;;;;2.67;0.70;;;6.80;99.90;;;;;;5071370;28;20594;-72
2023/12/22 04:04:46;;;;;;;4.83;0.60;;;6.80;99.90;;;;;;5053124;28;20180;-71
2023/12/22 04:07:12;;;;;;;3.80;2.10;;;6.80;99.90;;;;;;5069692;28;20218;-71
2023/12/22 04:09:38;;;;;;;2.47;0.50;;;6.80;99.90;;;;;;5069773;28;20266;-72
2023/12/22 04:12:04;;;;;;;1.97;0.60;;;6.70;99.90;;;;;;5070061;28;20167;-73
2023/12/22 04:14:30;;;;;;;1.03;0.60;;;6.80;99.90;;;;;;5070602;28;20461;-73
2023/12/22 04:16:57;;;;;;;4.17;0.90;;;6.80;99.90;;;;;;5069102;28;20430;-72
2023/12/22 04:19:22;;;;;;;3.33;1.00;;;6.80;99.90;;;;;;5070558;28;20547;-73
2023/12/22 04:21:48;;;;;;;2.70;0.73;;;6.70;99.90;;;;;;5070504;28;20427;-72
2023/12/22 04:24:14;;;;;;;1.63;0.80;;;6.70;99.90;;;;;;5069241;28;20282;-74
2023/12/22 04:26:39;;;;;;;1.77;0.80;;;6.70;99.90;;;;;;5069171;28;20225;-74
2023/12/22 04:29:05;;;;;;;3.27;0.80;;;6.70;99.90;;;;;;5070908;28;20183;-71
2023/12/22 04:31:31;;;;;;;1.60;0.70;;;6.70;99.90;;;;;;5070687;28;20563;-73
2023/12/22 04:33:56;;;;;;;3.33;0.73;;;6.70;99.90;;;;;;5070479;28;20210;-73
2023/12/22 04:36:22;;;;;;;6.90;1.33;;;6.70;99.90;;;;;;5070545;28;20195;-74
2023/12/22 04:38:47;;;;;;;8.60;1.40;;;6.70;99.90;;;;;;5070447;28;20653;-73
2023/12/22 04:41:13;;;;;;;3.83;0.83;;;6.70;99.90;;;;;;5068901;28;20232;-73
2023/12/22 04:43:38;;;;;;;4.17;0.70;;;6.60;99.90;;;;;;5068750;28;20194;-73
2023/12/22 04:46:04;;;;;;;2.80;0.90;;;6.60;99.90;;;;;;5068936;28;20260;-73
2023/12/22 04:48:30;;;;;;;13.00;1.10;;;6.60;99.90;;;;;;5052186;28;20668;-73
2023/12/22 04:50:55;;;;;;;3.60;0.80;;;6.50;99.90;;;;;;5068800;28;20695;-72
2023/12/22 04:53:21;;;;;;;3.73;1.03;;;6.50;99.90;;;;;;5068669;28;20210;-74
2023/12/22 04:55:46;;;;;;;3.23;1.00;;;6.50;99.90;;;;;;5070010;28;20179;-72
2023/12/22 04:58:12;;;;;;;4.90;1.50;;;6.50;99.90;;;;;;5069129;28;20222;-73
2023/12/22 05:00:37;;;;;;;3.60;1.07;;;6.50;99.90;;;;;;5068435;28;20176;-73
2023/12/22 05:03:03;;;;;;;7.40;1.10;;;6.50;99.90;;;;;;5068256;28;20553;-71
2023/12/22 05:05:29;;;;;;;4.60;1.20;;;6.50;99.90;;;;;;5069647;28;20274;-72
2023/12/22 05:07:54;;;;;;;3.33;0.80;;;6.50;99.90;;;;;;5069275;28;20199;-73
2023/12/22 05:10:20;;;;;;;5.17;0.93;;;6.50;99.90;;;;;;5069338;28;20237;-72
2023/12/22 05:12:45;;;;;;;5.93;1.07;;;6.50;99.90;;;;;;5070165;28;20214;-71
2023/12/22 05:15:11;;;;;;;5.70;1.20;;;6.50;99.90;;;;;;5070201;28;20709;-71
2023/12/22 05:17:37;;;;;;;6.00;0.90;;;6.50;99.90;;;;;;5070680;28;20206;-71
2023/12/22 05:20:03;;;;;;;4.93;1.33;;;6.50;99.90;;;;;;5052822;28;20234;-71
2023/12/22 05:22:31;;;;;;;2.53;1.00;;;6.50;99.90;;;;;;5069552;28;20193;-71
2023/12/22 05:24:58;;;;;;;8.67;1.40;;;6.50;99.90;;;;;;5067852;28;21067;-74
2023/12/22 05:27:24;;;;;;;7.43;1.60;;;6.50;99.90;;;;;;5068913;28;20454;-73
2023/12/22 05:29:50;;;;;;;4.60;1.20;;;6.50;99.90;;;;;;5050714;28;20433;-74
2023/12/22 05:32:15;;;;;;;6.77;1.70;;;6.50;99.90;;;;;;5066904;28;20414;-73
2023/12/22 05:34:41;;;;;;;2.50;0.90;;;6.50;99.90;;;;;;5067981;28;20499;-74
2023/12/22 05:37:06;;;;;;;8.00;1.20;;;6.50;99.90;;;;;;5067805;28;20290;-72
2023/12/22 05:39:32;;;;;;;3.47;1.10;;;6.50;99.90;;;;;;5066607;28;20828;-73
2023/12/22 05:41:58;;;;;;;4.57;1.50;;;6.60;99.90;;;;;;5067841;28;20206;-73
2023/12/22 05:44:24;;;;;;;6.40;1.50;;;6.60;99.90;;;;;;5066038;28;20317;-73
2023/12/22 05:46:50;;;;;;;4.90;1.30;;;6.70;99.90;;;;;;5067367;28;20624;-73
2023/12/22 05:49:16;;;;;;;8.57;2.33;;;6.70;99.90;;;;;;5049104;28;20884;-73
2023/12/22 05:51:41;;;;;;;6.07;1.43;;;6.70;99.90;;;;;;5065560;28;20513;-72
2023/12/22 05:54:08;;;;;;;10.60;1.70;;;6.60;99.90;;;;;;5067333;28;20931;-73
2023/12/22 05:56:34;;;;;;;5.40;1.33;;;6.60;99.90;;;;;;5067086;28;20432;-72
2023/12/22 05:59:00;;;;;;;7.27;1.53;;;6.60;99.90;;;;;;5067289;28;20914;-74
2023/12/22 06:01:25;;;;;;;4.60;1.23;;;6.60;99.90;;;;;;5066997;28;20225;-72
2023/12/22 06:03:51;;;;;;;18.30;1.80;;;6.50;99.90;;;;;;5065446;28;20206;-73
2023/12/22 06:06:18;;;;;;;10.50;1.97;;;6.50;99.90;;;;;;5048716;28;20765;-73
2023/12/22 06:08:43;;;;;;;7.60;1.37;;;6.60;99.90;;;;;;5067074;28;20451;-73
2023/12/22 06:11:09;;;;;;;9.10;1.60;;;6.60;99.90;;;;;;5065283;28;20414;-73
2023/12/22 06:13:35;;;;;;;14.40;1.67;;;6.60;99.90;;;;;;5065255;28;20257;-73
2023/12/22 06:16:01;;;;;;;9.87;2.03;;;6.60;99.90;;;;;;5066799;28;20202;-73
2023/12/22 06:18:26;;;;;;;7.63;2.00;;;6.50;99.90;;;;;;5067850;28;20191;-73
2023/12/22 06:20:52;;;;;;;8.77;1.87;;;6.50;99.90;;;;;;5073333;28;20448;-73
2023/12/22 06:23:18;;;;;;;8.33;2.13;;;6.50;99.90;;;;;;5073377;28;20424;-72
2023/12/22 06:25:46;;;;;;;9.67;1.70;;;6.50;99.90;;;;;;5071741;28;20206;-73
2023/12/22 06:28:12;;;;;;;5.10;1.20;;;6.40;99.90;;;;;;5073400;28;20416;-74
2023/12/22 06:30:37;;;;;;;8.53;1.23;;;6.40;99.90;;;;;;5071872;28;20516;-73
2023/12/22 06:33:03;;;;;;;12.83;2.47;;;6.30;99.90;;;;;;5073257;28;20535;-72
2023/12/22 06:35:31;;;;;;;12.50;1.60;;;6.30;99.90;;;;;;5072173;28;20884;-72
2023/12/22 06:38:01;;;;;;;6.60;1.63;;;6.20;99.90;;;;;;5073424;28;20437;-72
2023/12/22 06:40:26;;;;;;;8.20;2.27;;;6.30;99.90;;;;;;5073709;28;20570;-72
2023/12/22 06:42:52;;;;;;;6.03;2.33;;;6.30;99.90;;;;;;5055302;28;20988;-71
2023/12/22 06:45:17;;;;;;;7.67;1.40;;;6.30;99.90;;;;;;5073209;28;20194;-72
2023/12/22 06:47:43;;;;;;;7.13;1.33;;;6.30;99.90;;;;;;5073297;28;20301;-71
2023/12/22 06:50:09;;;;;;;10.27;1.67;;;6.30;99.90;;;;;;5071513;28;20332;-72
2023/12/22 06:52:35;;;;;;;7.60;1.20;;;6.30;99.90;;;;;;5071904;28;20269;-71
2023/12/22 06:55:00;;;;;;;13.63;1.53;;;6.40;99.90;;;;;;5073457;28;20409;-71
2023/12/22 06:57:26;;;;;;;3.43;1.00;;;6.30;99.90;;;;;;5055303;28;20240;-73
2023/12/22 06:59:51;;;;;;;7.50;1.60;;;6.30;99.90;;;;;;5073455;28;20555;-72
2023/12/22 07:02:17;;;;;;;7.20;1.67;;;6.30;99.90;;;;;;5071716;28;20183;-71
2023/12/22 07:05:23;;;;;;;8.70;1.97;;;6.30;99.90;;;;;;5073061;28;20186;-74
2023/12/22 07:07:50;;;;;;;5.87;1.37;;;6.20;99.90;;;;;;5073218;28;20319;-73
2023/12/22 07:10:16;;;;;;;14.40;2.30;;;6.10;99.90;;;;;;5071671;28;20432;-72
2023/12/22 07:12:42;;;;;;;7.33;1.20;;;6.10;99.90;;;;;;5073296;28;20428;-73
2023/12/22 07:15:07;;;;;;;6.80;1.60;;;6.10;99.90;;;;;;5071925;28;20312;-72
2023/12/22 07:17:34;;;;;;;7.50;1.60;;;6.10;99.90;;;;;;5073630;28;20276;-71
2023/12/22 07:20:00;;;;;;;4.90;1.20;;;6.10;99.90;;;;;;5073944;28;20463;-72
2023/12/22 07:22:26;;;;;;;7.57;1.63;;;6.10;99.90;;;;;;5071732;28;20543;-72
2023/12/22 07:24:52;;;;;;;11.60;1.40;;;6.10;99.90;;;;;;5073290;28;20519;-73
2023/12/22 07:27:18;;;;;;;7.43;1.70;;;6.20;99.90;;;;;;5073496;28;20242;-72
2023/12/22 07:29:44;;;;;;;8.90;2.03;;;6.20;99.90;;;;;;5071412;28;20530;-71
2023/12/22 07:32:09;;;;;;;11.17;1.60;;;6.30;99.90;;;;;;5070123;28;20198;-73
2023/12/22 07:34:35;;;;;;;9.33;2.13;;;6.30;99.90;;;;;;5069862;28;20222;-73
2023/12/22 07:37:01;;;;;;;12.67;1.80;;;6.40;99.90;;;;;;5069846;28;20199;-70
2023/12/22 07:39:26;;;;;;;11.20;2.73;;;6.40;99.90;;;;;;5068368;28;20453;-72
2023/12/22 07:41:52;;;;;;;9.83;2.17;;;6.50;99.90;;;;;;5069665;28;20191;-74
2023/12/22 07:44:18;;;;;;;8.50;1.37;;;6.50;99.90;;;;;;5069576;28;20324;-71
2023/12/22 07:46:43;;;;;;;8.63;1.97;;;6.50;99.90;;;;;;5069739;28;20735;-73
2023/12/22 07:49:09;;;;;;;6.47;1.30;;;6.50;99.90;;;;;;5069703;28;20198;-73
2023/12/22 07:51:34;;;;;;;7.60;1.37;;;6.50;99.90;;;;;;5069710;28;20187;-72
2023/12/22 07:54:00;;;;;;;10.40;1.80;;;6.60;99.90;;;;;;5068302;28;20256;-71
2023/12/22 07:56:26;;;;;;;7.43;2.10;;;6.50;99.90;;;;;;5069309;28;20214;-73
2023/12/22 07:58:53;;;;;;;6.50;1.70;;;6.50;99.90;;;;;;5068064;28;20286;-72
2023/12/22 08:01:19;;;;;;;11.53;2.70;;;6.50;99.90;;;;;;5069317;28;20941;-74
2023/12/22 08:03:44;;;;;;;8.10;1.80;;;6.50;99.90;;;;;;5069931;28;20512;-74
2023/12/22 08:06:10;;;;;;;7.33;2.37;;;6.50;99.90;;;;;;5050945;28;20250;-72
2023/12/22 08:08:36;;;;;;;8.00;1.97;;;6.50;99.90;;;;;;5069258;28;20244;-72
2023/12/22 08:11:02;;;;;;;10.33;1.90;;;6.50;99.90;;;;;;5069212;28;20191;-72
2023/12/22 08:13:27;;;;;;;8.10;2.30;;;6.50;99.90;;;;;;5069226;28;20468;-73
2023/12/22 08:15:53;;;;;;;7.20;1.67;;;6.50;99.90;;;;;;5067992;28;20677;-72
2023/12/22 08:18:18;;;;;;;3.60;1.40;;;6.50;99.90;;;;;;5068159;28;20194;-74
2023/12/22 08:20:44;;;;;;;10.93;2.70;;;6.50;99.90;;;;;;5067869;28;20546;-72
2023/12/22 08:23:12;;;;;;;9.47;1.70;;;6.60;99.90;;;;;;5067336;28;20191;-72
2023/12/22 08:25:38;;;;;;;13.73;2.57;;;6.60;99.90;;;;;;5068526;28;20438;-73
2023/12/22 08:28:04;;;;;;;19.87;2.50;;;6.70;99.90;;;;;;5068946;28;20452;-73
2023/12/22 08:30:30;;;;;;;9.30;2.07;;;6.70;99.90;;;;;;5069181;28;20805;-73
2023/12/22 08:32:55;;;;;;;5.33;1.60;;;6.70;99.90;;;;;;5069389;28;20472;-73
2023/12/22 08:35:21;;;;;;;8.37;1.60;;;6.70;99.90;;;;;;5067933;28;20190;-73
2023/12/22 08:37:47;;;;;;;9.37;1.83;;;6.70;99.90;;;;;;5068281;28;20263;-73
2023/12/22 08:40:13;;;;;;;17.67;2.00;;;6.70;99.90;;;;;;5069550;28;20194;-72
2023/12/22 08:42:39;;;;;;;6.83;1.90;;;6.80;99.90;;;;;;5067765;28;20187;-72
2023/12/22 08:45:05;;;;;;;9.73;2.40;;;6.80;99.90;;;;;;5051292;28;20197;-73
2023/12/22 08:47:31;;;;;;;19.10;2.70;;;6.80;99.90;;;;;;5069110;28;20437;-70
2023/12/22 08:49:56;;;;;;;8.47;2.00;;;6.80;99.90;;;;;;5067564;28;20829;-73
2023/12/22 08:52:22;;;;;;;5.50;2.30;;;6.80;99.90;;;;;;5050338;28;20224;-72
2023/12/22 08:54:47;;;;;;;12.10;2.50;;;6.80;99.90;;;;;;5066768;28;20602;-74
2023/12/22 08:57:13;;;;;;;10.60;2.10;;;6.80;99.90;;;;;;5067288;28;20213;-72
2023/12/22 08:59:38;;;;;;;10.53;2.37;;;6.70;99.90;;;;;;5068165;28;20674;-73
2023/12/22 09:02:05;;;;;;;11.20;1.83;;;6.80;99.90;;;;;;5068531;28;20198;-72
2023/12/22 09:04:31;;;;;;;9.93;2.77;;;6.80;99.90;;;;;;5068657;28;20211;-72
2023/12/22 09:06:57;;;;;;;13.33;2.70;;;6.80;99.90;;;;;;5068037;28;20528;-73
2023/12/22 09:09:24;;;;;;;11.47;2.30;;;6.80;99.90;;;;;;5067974;28;20206;-72
2023/12/22 09:11:50;;;;;;;11.60;1.93;;;6.90;99.90;;;;;;5067945;28;20185;-72
2023/12/22 09:14:15;;;;;;;7.80;1.27;;;6.90;99.90;;;;;;5067997;28;20907;-72
2023/12/22 09:16:42;;;;;;;7.20;1.90;;;6.90;99.90;;;;;;5066634;28;20200;-72
2023/12/22 09:19:08;;;;;;;7.50;1.93;;;6.90;99.90;;;;;;5050115;28;20423;-73
2023/12/22 09:21:34;;;;;;;8.57;2.00;;;6.90;99.90;;;;;;5067961;28;20417;-73
2023/12/22 09:23:59;;;;;;;32.53;13.60;;;6.90;99.90;;;;;;5068451;28;20515;-72
2023/12/22 09:26:26;;;;;;;11.40;4.00;;;6.90;99.90;;;;;;5066763;28;20218;-73
2023/12/22 09:28:51;;;;;;;18.43;5.80;;;7.00;99.90;;;;;;5068388;28;20175;-72
2023/12/22 09:31:17;;;;;;;6.80;1.90;;;6.90;99.90;;;;;;5068323;28;20448;-73
2023/12/22 09:33:42;;;;;;;11.57;1.93;;;6.90;99.90;;;;;;5066975;28;20221;-71
2023/12/22 09:36:09;;;;;;;10.80;2.10;;;6.90;99.90;;;;;;5068324;28;20203;-73
2023/12/22 09:38:35;;;;;;;6.13;1.07;;;6.80;99.90;;;;;;5066676;28;20195;-72
2023/12/22 09:41:01;;;;;;;6.33;1.50;;;6.80;99.90;;;;;;5068386;28;20413;-72
2023/12/22 09:43:27;;;;;;;5.23;1.53;;;6.80;99.90;;;;;;5049845;28;20187;-74
2023/12/22 09:45:53;;;;;;;10.60;2.03;;;6.80;99.90;;;;;;5066513;28;20479;-71
2023/12/22 09:48:26;;;;;;;6.90;1.77;;;6.70;99.90;;;;;;5068085;28;20179;-73
2023/12/22 09:50:52;;;;;;;11.90;2.17;;;6.80;99.90;;;;;;5068856;28;20619;-73
2023/12/22 09:53:20;;;;;;;8.17;2.20;;;6.80;99.90;;;;;;5067437;28;20644;-73
2023/12/22 09:55:47;;;;;;;5.10;1.80;;;6.80;99.90;;;;;;5067874;28;20421;-73
2023/12/22 09:58:16;;;;;;;4.30;1.80;;;6.90;99.90;;;;;;5067890;28;20420;-71
2023/12/22 10:00:43;;;;;;;4.90;1.70;;;6.90;99.90;;;;;;5067734;28;20841;-71
2023/12/22 10:03:11;;;;;;;15.70;2.50;;;6.90;99.90;;;;;;5067497;28;20479;-74
2023/12/22 10:05:37;;;;;;;8.80;2.67;;;7.00;99.90;;;;;;5065980;28;20448;-74
2023/12/22 10:08:04;;;;;;;6.50;1.50;;;7.00;99.90;;;;;;5065466;28;20459;-73
2023/12/22 10:10:30;;;;;;;9.30;1.80;;;7.00;99.90;;;;;;5067053;28;20257;-73
2023/12/22 10:12:58;;;;;;;6.93;2.10;;;7.00;99.90;;;;;;5067115;28;20557;-72
2023/12/22 10:15:24;;;;;;;5.00;1.57;;;7.00;99.90;;;;;;5067037;28;20912;-72
2023/12/22 10:17:51;;;;;;;7.67;1.70;;;7.10;99.90;;;;;;5065381;28;20868;-73
2023/12/22 10:20:17;;;;;;;11.50;1.83;;;7.00;99.90;;;;;;5065345;28;20421;-73
2023/12/22 10:22:43;;;;;;;10.07;2.17;;;7.00;99.90;;;;;;5065187;28;20998;-74
2023/12/22 10:25:09;;;;;;;5.63;2.00;;;7.00;99.90;;;;;;5066930;28;20528;-71
2023/12/22 10:27:36;;;;;;;8.43;1.57;;;7.10;99.90;;;;;;5065514;28;20253;-71
2023/12/22 10:30:03;;;;;;;6.60;1.70;;;7.10;99.90;;;;;;5066894;28;20270;-72
2023/12/22 10:32:29;;;;;;;7.43;1.87;;;7.10;99.90;;;;;;5066709;28;20405;-72
2023/12/22 10:34:57;;;;;;;12.70;2.07;;;7.10;99.90;;;;;;5067206;28;20831;-73
2023/12/22 10:37:23;;;;;;;9.10;1.97;;;7.10;99.90;;;;;;5065381;28;20445;-73
2023/12/22 10:39:53;;;;;;;8.93;2.30;;;7.10;99.90;;;;;;5066871;28;20451;-74
2023/12/22 10:42:19;;;;;;;9.97;2.30;;;7.10;99.90;;;;;;5066800;28;20416;-72
2023/12/22 10:44:45;;;;;;;7.67;2.70;;;7.10;99.90;;;;;;5065244;28;20797;-72
2023/12/22 10:47:11;;;;;;;10.07;2.63;;;7.10;99.90;;;;;;5067831;28;20289;-73
2023/12/22 10:49:37;;;;;;;10.77;2.40;;;7.20;99.90;;;;;;5067440;28;20563;-71
2023/12/22 10:52:03;;;;;;;9.77;2.90;;;7.20;99.90;;;;;;5067766;28;20418;-73
2023/12/22 10:54:30;;;;;;;15.70;2.17;;;7.20;99.90;;;;;;5050479;28;20472;-72
2023/12/22 10:57:02;;;;;;;48.13;24.10;;;7.20;99.90;;;;;;5066396;28;20429;-72
2023/12/22 10:59:33;;;;;;;10.73;3.50;;;7.20;99.90;;;;;;5066948;28;20848;-73
2023/12/22 11:01:59;;;;;;;10.57;3.80;;;7.20;99.90;;;;;;5065339;28;20440;-71
2023/12/22 11:04:34;;;;;;;17.57;3.77;;;7.20;99.90;;;;;;5067771;28;20426;-72
2023/12/22 11:07:03;;;;;;;10.53;3.10;;;7.20;99.90;;;;;;5070495;28;20513;-73
2023/12/22 11:09:32;;;;;;;8.20;2.37;;;7.00;99.90;;;;;;5070206;28;20522;-72
2023/12/22 11:12:00;;;;;;;10.67;2.00;;;6.90;99.90;;;;;;5070408;28;20805;-73
2023/12/22 11:14:26;;;;;;;10.03;2.40;;;6.90;99.90;;;;;;5070080;28;20496;-71
2023/12/22 11:16:54;;;;;;;10.20;2.13;;;6.90;99.90;;;;;;5070140;28;20448;-73
2023/12/22 11:19:23;;;;;;;14.57;2.37;;;6.90;99.90;;;;;;5070199;28;20512;-74
2023/12/22 11:21:51;;;;;;;14.70;2.57;;;6.90;99.90;;;;;;5070575;28;20468;-73
2023/12/22 11:24:18;;;;;;;6.80;2.00;;;6.90;99.90;;;;;;5071109;28;20436;-73
2023/12/22 11:26:47;;;;;;;11.10;1.83;;;6.90;99.90;;;;;;5068709;28;20932;-72
2023/12/22 11:29:14;;;;;;;12.20;2.47;;;6.90;99.90;;;;;;5070337;28;20422;-72
2023/12/22 11:31:43;;;;;;;5.40;1.70;;;6.90;99.90;;;;;;5070532;28;20425;-73
2023/12/22 11:34:11;;;;;;;8.47;2.00;;;6.80;99.90;;;;;;5069867;28;20486;-73
2023/12/22 11:36:38;;;;;;;7.93;1.87;;;6.80;99.90;;;;;;5069971;28;20514;-73
2023/12/22 11:39:04;;;;;;;18.17;2.77;;;6.70;99.90;;;;;;5069659;28;20425;-74
2023/12/22 11:41:34;;;;;;;13.30;2.17;;;6.60;99.90;;;;;;5070078;28;20424;-73
2023/12/22 11:44:03;;;;;;;12.93;1.50;;;6.70;99.90;;;;;;5068168;28;20417;-73
2023/12/22 11:46:30;;;;;;;11.10;2.33;;;6.70;99.90;;;;;;5051730;28;20536;-71
2023/12/22 11:48:56;;;;;;;6.37;2.20;;;6.70;99.90;;;;;;5070213;28;20417;-71
2023/12/22 11:51:22;;;;;;;12.60;2.10;;;6.70;99.90;;;;;;5068024;28;20530;-72
2023/12/22 11:53:47;;;;;;;8.30;1.97;;;6.70;99.90;;;;;;5070188;28;20866;-73
2023/12/22 11:56:13;;;;;;;10.63;2.10;;;6.60;99.90;;;;;;5069702;28;20433;-72
2023/12/22 11:58:52;;;;;;;7.70;2.20;;;6.60;99.90;;;;;;5067756;28;20267;-73
2023/12/22 12:01:20;;;;;;;8.53;2.07;;;6.70;99.90;;;;;;5069517;28;20207;-73
2023/12/22 12:03:53;;;;;;;10.83;1.80;;;6.60;99.90;;;;;;5069433;28;20413;-73
2023/12/22 12:06:30;;;;;;;4.40;1.43;;;6.70;99.90;;;;;;5069693;28;20483;-71
2023/12/22 12:09:09;;;;;;;7.90;2.20;;;6.70;99.90;;;;;;5069228;28;20466;-73
2023/12/22 12:11:58;;;;;;;7.47;2.10;;;6.70;99.90;;;;;;5067904;28;21010;-73
2023/12/22 12:14:33;;;;;;;3.87;1.23;;;6.70;99.90;;;;;;5069331;28;20460;-71
2023/12/22 12:17:13;;;;;;;4.77;1.20;;;6.70;99.90;;;;;;5067317;28;20834;-73
2023/12/22 12:19:41;;;;;;;6.40;1.50;;;6.60;99.90;;;;;;5069517;28;20988;-73
2023/12/22 12:22:07;;;;;;;2.07;1.20;;;6.60;99.90;;;;;;5067542;28;20425;-72
2023/12/22 12:24:33;;;;;;;6.57;1.83;;;6.70;99.90;;;;;;5069288;28;20425;-72
2023/12/22 12:26:59;;;;;;;4.83;1.10;;;6.70;99.90;;;;;;5069309;28;20461;-73
2023/12/22 12:29:25;;;;;;;2.63;0.80;;;6.70;99.90;;;;;;5069409;28;20537;-72
2023/12/22 12:31:51;;;;;;;7.27;1.63;;;6.70;99.90;;;;;;5069125;28;20194;-73
2023/12/22 12:34:20;;;;;;;11.67;1.40;;;6.70;99.90;;;;;;5067806;28;20211;-73
2023/12/22 12:36:47;;;;;;;2.70;1.07;;;6.80;99.90;;;;;;5069178;28;20440;-73
2023/12/22 12:39:15;;;;;;;5.53;1.10;;;6.70;99.90;;;;;;5069254;28;20927;-75
2023/12/22 12:41:43;;;;;;;1.50;0.93;;;6.70;99.90;;;;;;5067923;28;20423;-73
2023/12/22 12:44:10;;;;;;;3.27;0.93;;;6.80;99.90;;;;;;5069136;28;20417;-75
2023/12/22 12:46:42;;;;;;;9.00;2.60;;;6.80;99.90;;;;;;5069146;28;20426;-73
2023/12/22 12:49:14;;;;;;;3.67;1.80;;;6.90;99.90;;;;;;5069400;28;20405;-72
2023/12/22 12:51:45;;;;;;;3.53;1.00;;;6.80;99.90;;;;;;5069118;28;20425;-74